sensor_id;sensor_type;location;lat;lon;timestamp;temperature;humidity
69387;SHT31;56575;48.942;8.404;2023-07-20T00:01:49;21.22;52.98
69387;SHT31;56575;48.942;8.404;2023-07-20T00:04:15;21.15;52.97
69387;SHT31;56575;48.942;8.404;2023-07-20T00:06:40;21.18;53.14
69387;SHT31;56575;48.942;8.404;2023-07-20T00:09:09;21.15;53.53
69387;SHT31;56575;48.942;8.404;2023-07-20T00:11:37;21.05;53.89
69387;SHT31;56575;48.942;8.404;2023-07-20T00:14:04;21.02;54.06
69387;SHT31;56575;48.942;8.404;2023-07-20T00:16:30;21.03;55.20
69387;SHT31;56575;48.942;8.404;2023-07-20T00:18:55;21.02;54.44
69387;SHT31;56575;48.942;8.404;2023-07-20T00:21:20;20.98;54.33
69387;SHT31;56575;48.942;8.404;2023-07-20T00:23:46;20.94;54.74
69387;SHT31;56575;48.942;8.404;2023-07-20T00:26:11;20.92;54.69
69387;SHT31;56575;48.942;8.404;2023-07-20T00:28:36;20.91;55.12
69387;SHT31;56575;48.942;8.404;2023-07-20T00:31:02;20.91;55.25
69387;SHT31;56575;48.942;8.404;2023-07-20T00:33:28;20.77;55.28
69387;SHT31;56575;48.942;8.404;2023-07-20T00:35:53;20.77;55.53
69387;SHT31;56575;48.942;8.404;2023-07-20T00:38:18;20.78;55.39
69387;SHT31;56575;48.942;8.404;2023-07-20T00:40:44;20.80;55.67
69387;SHT31;56575;48.942;8.404;2023-07-20T00:43:10;20.71;55.50
69387;SHT31;56575;48.942;8.404;2023-07-20T00:45:36;20.67;55.92
69387;SHT31;56575;48.942;8.404;2023-07-20T00:48:04;20.63;56.01
69387;SHT31;56575;48.942;8.404;2023-07-20T00:50:31;20.54;56.12
69387;SHT31;56575;48.942;8.404;2023-07-20T00:52:57;20.50;56.07
69387;SHT31;56575;48.942;8.404;2023-07-20T00:55:24;20.37;56.56
69387;SHT31;56575;48.942;8.404;2023-07-20T00:57:50;20.39;56.59
69387;SHT31;56575;48.942;8.404;2023-07-20T01:00:16;20.20;56.69
69387;SHT31;56575;48.942;8.404;2023-07-20T01:02:41;20.26;56.75
69387;SHT31;56575;48.942;8.404;2023-07-20T01:05:07;20.16;56.67
69387;SHT31;56575;48.942;8.404;2023-07-20T01:07:48;20.12;57.17
69387;SHT31;56575;48.942;8.404;2023-07-20T01:10:43;20.16;57.05
69387;SHT31;56575;48.942;8.404;2023-07-20T01:13:10;20.11;57.36
69387;SHT31;56575;48.942;8.404;2023-07-20T01:15:36;20.12;57.26
69387;SHT31;56575;48.942;8.404;2023-07-20T01:18:02;20.08;57.26
69387;SHT31;56575;48.942;8.404;2023-07-20T01:20:30;20.08;57.43
69387;SHT31;56575;48.942;8.404;2023-07-20T01:31:09;20.04;58.19
69387;SHT31;56575;48.942;8.404;2023-07-20T01:33:35;19.99;58.18
69387;SHT31;56575;48.942;8.404;2023-07-20T01:36:01;19.98;58.53
69387;SHT31;56575;48.942;8.404;2023-07-20T01:38:28;19.98;58.46
69387;SHT31;56575;48.942;8.404;2023-07-20T01:40:53;19.96;58.21
69387;SHT31;56575;48.942;8.404;2023-07-20T01:43:19;19.99;58.24
69387;SHT31;56575;48.942;8.404;2023-07-20T01:45:44;19.96;58.60
69387;SHT31;56575;48.942;8.404;2023-07-20T01:48:10;19.89;58.99
69387;SHT31;56575;48.942;8.404;2023-07-20T01:50:35;19.70;59.57
69387;SHT31;56575;48.942;8.404;2023-07-20T01:53:01;19.63;59.66
69387;SHT31;56575;48.942;8.404;2023-07-20T01:55:27;19.60;60.10
69387;SHT31;56575;48.942;8.404;2023-07-20T01:57:52;19.57;60.01
69387;SHT31;56575;48.942;8.404;2023-07-20T02:00:18;19.54;60.38
69387;SHT31;56575;48.942;8.404;2023-07-20T02:02:46;19.50;60.44
69387;SHT31;56575;48.942;8.404;2023-07-20T02:05:12;19.40;60.89
69387;SHT31;56575;48.942;8.404;2023-07-20T02:07:37;19.37;60.97
69387;SHT31;56575;48.942;8.404;2023-07-20T02:10:03;19.33;61.00
69387;SHT31;56575;48.942;8.404;2023-07-20T02:12:28;19.31;61.09
69387;SHT31;56575;48.942;8.404;2023-07-20T02:14:54;19.34;61.28
69387;SHT31;56575;48.942;8.404;2023-07-20T02:17:19;19.37;61.27
69387;SHT31;56575;48.942;8.404;2023-07-20T02:19:44;19.31;61.14
69387;SHT31;56575;48.942;8.404;2023-07-20T02:22:10;19.34;61.47
69387;SHT31;56575;48.942;8.404;2023-07-20T02:24:36;19.34;61.40
69387;SHT31;56575;48.942;8.404;2023-07-20T02:27:01;19.33;61.70
69387;SHT31;56575;48.942;8.404;2023-07-20T02:29:26;19.31;61.77
69387;SHT31;56575;48.942;8.404;2023-07-20T02:31:52;19.30;61.96
69387;SHT31;56575;48.942;8.404;2023-07-20T02:34:17;19.27;61.89
69387;SHT31;56575;48.942;8.404;2023-07-20T02:36:43;19.20;61.89
69387;SHT31;56575;48.942;8.404;2023-07-20T02:39:08;19.20;61.75
69387;SHT31;56575;48.942;8.404;2023-07-20T02:41:34;19.16;62.31
69387;SHT31;56575;48.942;8.404;2023-07-20T02:44:00;19.15;62.11
69387;SHT31;56575;48.942;8.404;2023-07-20T02:46:27;19.11;62.36
69387;SHT31;56575;48.942;8.404;2023-07-20T02:48:55;19.03;62.18
69387;SHT31;56575;48.942;8.404;2023-07-20T02:51:20;19.03;62.48
69387;SHT31;56575;48.942;8.404;2023-07-20T02:53:45;18.91;62.40
69387;SHT31;56575;48.942;8.404;2023-07-20T02:56:11;18.85;62.93
69387;SHT31;56575;48.942;8.404;2023-07-20T02:58:40;18.79;62.90
69387;SHT31;56575;48.942;8.404;2023-07-20T03:01:08;18.75;63.05
69387;SHT31;56575;48.942;8.404;2023-07-20T03:03:35;18.63;63.37
69387;SHT31;56575;48.942;8.404;2023-07-20T03:06:04;18.60;63.69
69387;SHT31;56575;48.942;8.404;2023-07-20T03:08:29;18.61;63.74
69387;SHT31;56575;48.942;8.404;2023-07-20T03:10:55;18.54;64.03
69387;SHT31;56575;48.942;8.404;2023-07-20T03:13:20;18.51;63.93
69387;SHT31;56575;48.942;8.404;2023-07-20T03:15:46;18.48;64.02
69387;SHT31;56575;48.942;8.404;2023-07-20T03:18:11;18.44;64.27
69387;SHT31;56575;48.942;8.404;2023-07-20T03:20:37;18.34;64.52
69387;SHT31;56575;48.942;8.404;2023-07-20T03:23:03;18.33;64.78
69387;SHT31;56575;48.942;8.404;2023-07-20T03:25:29;18.26;64.84
69387;SHT31;56575;48.942;8.404;2023-07-20T03:27:54;18.26;65.13
69387;SHT31;56575;48.942;8.404;2023-07-20T03:30:20;18.26;65.23
69387;SHT31;56575;48.942;8.404;2023-07-20T03:32:45;18.26;64.86
69387;SHT31;56575;48.942;8.404;2023-07-20T03:35:10;18.26;65.18
69387;SHT31;56575;48.942;8.404;2023-07-20T03:37:36;18.22;65.16
69387;SHT31;56575;48.942;8.404;2023-07-20T03:40:02;18.19;65.20
69387;SHT31;56575;48.942;8.404;2023-07-20T03:42:28;18.25;65.08
69387;SHT31;56575;48.942;8.404;2023-07-20T03:44:53;18.13;65.26
69387;SHT31;56575;48.942;8.404;2023-07-20T03:47:19;18.13;65.45
69387;SHT31;56575;48.942;8.404;2023-07-20T03:49:44;18.13;65.72
69387;SHT31;56575;48.942;8.404;2023-07-20T03:52:09;18.12;65.77
69387;SHT31;56575;48.942;8.404;2023-07-20T03:54:35;18.13;65.83
69387;SHT31;56575;48.942;8.404;2023-07-20T03:57:00;18.10;65.80
69387;SHT31;56575;48.942;8.404;2023-07-20T03:59:26;18.09;65.80
69387;SHT31;56575;48.942;8.404;2023-07-20T04:01:51;18.06;65.83
69387;SHT31;56575;48.942;8.404;2023-07-20T04:04:16;18.08;65.79
69387;SHT31;56575;48.942;8.404;2023-07-20T04:06:42;18.09;65.88
69387;SHT31;56575;48.942;8.404;2023-07-20T04:09:09;17.99;65.91
69387;SHT31;56575;48.942;8.404;2023-07-20T04:11:35;18.01;66.16
69387;SHT31;56575;48.942;8.404;2023-07-20T04:14:00;18.05;66.42
69387;SHT31;56575;48.942;8.404;2023-07-20T04:16:26;18.05;65.91
69387;SHT31;56575;48.942;8.404;2023-07-20T04:18:54;18.02;65.98
69387;SHT31;56575;48.942;8.404;2023-07-20T04:21:19;18.03;66.16
69387;SHT31;56575;48.942;8.404;2023-07-20T04:23:44;18.02;66.17
69387;SHT31;56575;48.942;8.404;2023-07-20T04:26:10;18.01;66.08
69387;SHT31;56575;48.942;8.404;2023-07-20T04:28:38;17.93;66.40
69387;SHT31;56575;48.942;8.404;2023-07-20T04:31:10;17.93;66.55
69387;SHT31;56575;48.942;8.404;2023-07-20T04:33:36;17.88;66.66
69387;SHT31;56575;48.942;8.404;2023-07-20T04:36:02;17.89;66.67
69387;SHT31;56575;48.942;8.404;2023-07-20T04:38:27;17.91;66.82
69387;SHT31;56575;48.942;8.404;2023-07-20T04:40:53;17.93;66.84
69387;SHT31;56575;48.942;8.404;2023-07-20T04:43:18;17.93;66.69
69387;SHT31;56575;48.942;8.404;2023-07-20T04:45:43;17.96;66.77
69387;SHT31;56575;48.942;8.404;2023-07-20T04:48:11;17.92;66.68
69387;SHT31;56575;48.942;8.404;2023-07-20T04:50:37;17.99;66.63
69387;SHT31;56575;48.942;8.404;2023-07-20T04:53:03;17.96;66.72
69387;SHT31;56575;48.942;8.404;2023-07-20T04:55:28;17.91;67.01
69387;SHT31;56575;48.942;8.404;2023-07-20T04:57:54;17.84;67.06
69387;SHT31;56575;48.942;8.404;2023-07-20T05:00:19;17.82;67.05
69387;SHT31;56575;48.942;8.404;2023-07-20T05:02:46;17.79;67.29
69387;SHT31;56575;48.942;8.404;2023-07-20T05:05:14;17.73;67.59
69387;SHT31;56575;48.942;8.404;2023-07-20T05:07:40;17.78;67.51
69387;SHT31;56575;48.942;8.404;2023-07-20T05:10:06;17.79;67.61
69387;SHT31;56575;48.942;8.404;2023-07-20T05:12:31;17.78;67.63
69387;SHT31;56575;48.942;8.404;2023-07-20T05:14:56;17.81;67.52
69387;SHT31;56575;48.942;8.404;2023-07-20T05:17:22;17.82;67.43
69387;SHT31;56575;48.942;8.404;2023-07-20T05:19:47;17.92;67.33
69387;SHT31;56575;48.942;8.404;2023-07-20T05:22:16;17.95;67.23
69387;SHT31;56575;48.942;8.404;2023-07-20T05:24:42;17.98;67.05
69387;SHT31;56575;48.942;8.404;2023-07-20T05:27:07;18.09;66.95
69387;SHT31;56575;48.942;8.404;2023-07-20T05:29:32;18.20;66.64
69387;SHT31;56575;48.942;8.404;2023-07-20T05:31:58;18.34;66.37
69387;SHT31;56575;48.942;8.404;2023-07-20T05:34:23;18.46;65.90
69387;SHT31;56575;48.942;8.404;2023-07-20T05:36:49;18.53;65.63
69387;SHT31;56575;48.942;8.404;2023-07-20T05:39:16;18.61;65.27
69387;SHT31;56575;48.942;8.404;2023-07-20T05:41:42;18.69;65.03
69387;SHT31;56575;48.942;8.404;2023-07-20T05:44:08;18.84;64.86
69387;SHT31;56575;48.942;8.404;2023-07-20T05:46:33;18.89;64.72
69387;SHT31;56575;48.942;8.404;2023-07-20T05:48:58;18.94;64.38
69387;SHT31;56575;48.942;8.404;2023-07-20T05:51:24;18.96;64.55
69387;SHT31;56575;48.942;8.404;2023-07-20T05:53:49;19.01;64.46
69387;SHT31;56575;48.942;8.404;2023-07-20T05:56:14;19.06;64.49
69387;SHT31;56575;48.942;8.404;2023-07-20T05:58:40;19.12;64.48
69387;SHT31;56575;48.942;8.404;2023-07-20T06:01:05;19.20;64.66
69387;SHT31;56575;48.942;8.404;2023-07-20T06:03:32;19.12;65.37
69387;SHT31;56575;48.942;8.404;2023-07-20T06:06:01;19.20;65.17
69387;SHT31;56575;48.942;8.404;2023-07-20T06:08:28;19.31;65.30
69387;SHT31;56575;48.942;8.404;2023-07-20T06:10:54;19.31;64.65
69387;SHT31;56575;48.942;8.404;2023-07-20T06:13:19;19.37;63.90
69387;SHT31;56575;48.942;8.404;2023-07-20T06:15:44;19.53;63.67
69387;SHT31;56575;48.942;8.404;2023-07-20T06:18:10;19.63;63.17
69387;SHT31;56575;48.942;8.404;2023-07-20T06:20:35;19.67;62.92
69387;SHT31;56575;48.942;8.404;2023-07-20T06:23:00;19.82;62.61
69387;SHT31;56575;48.942;8.404;2023-07-20T06:25:26;19.79;62.08
69387;SHT31;56575;48.942;8.404;2023-07-20T06:27:51;19.86;62.60
69387;SHT31;56575;48.942;8.404;2023-07-20T06:30:17;19.95;62.34
69387;SHT31;56575;48.942;8.404;2023-07-20T06:32:43;20.13;62.21
69387;SHT31;56575;48.942;8.404;2023-07-20T06:35:08;20.13;61.88
69387;SHT31;56575;48.942;8.404;2023-07-20T06:37:34;20.19;61.85
69387;SHT31;56575;48.942;8.404;2023-07-20T06:40:00;20.22;61.90
69387;SHT31;56575;48.942;8.404;2023-07-20T06:42:26;20.28;61.56
69387;SHT31;56575;48.942;8.404;2023-07-20T06:44:52;20.30;61.68
69387;SHT31;56575;48.942;8.404;2023-07-20T06:47:17;20.26;61.76
69387;SHT31;56575;48.942;8.404;2023-07-20T06:49:43;20.37;61.34
69387;SHT31;56575;48.942;8.404;2023-07-20T06:52:08;20.36;61.07
69387;SHT31;56575;48.942;8.404;2023-07-20T06:54:33;20.34;60.81
69387;SHT31;56575;48.942;8.404;2023-07-20T06:56:59;20.54;60.44
69387;SHT31;56575;48.942;8.404;2023-07-20T06:59:25;20.47;60.78
69387;SHT31;56575;48.942;8.404;2023-07-20T07:01:50;20.63;60.58
69387;SHT31;56575;48.942;8.404;2023-07-20T07:04:15;20.60;60.87
69387;SHT31;56575;48.942;8.404;2023-07-20T07:06:41;20.43;61.35
69387;SHT31;56575;48.942;8.404;2023-07-20T07:09:06;20.46;61.37
69387;SHT31;56575;48.942;8.404;2023-07-20T07:11:33;20.56;61.18
69387;SHT31;56575;48.942;8.404;2023-07-20T07:13:59;20.68;61.28
69387;SHT31;56575;48.942;8.404;2023-07-20T07:16:24;20.67;61.21
69387;SHT31;56575;48.942;8.404;2023-07-20T07:18:50;20.78;60.89
69387;SHT31;56575;48.942;8.404;2023-07-20T07:21:16;20.77;60.71
69387;SHT31;56575;48.942;8.404;2023-07-20T07:23:41;20.78;60.92
69387;SHT31;56575;48.942;8.404;2023-07-20T07:26:07;20.90;60.71
69387;SHT31;56575;48.942;8.404;2023-07-20T07:28:32;20.88;60.18
69387;SHT31;56575;48.942;8.404;2023-07-20T07:30:58;20.95;60.42
69387;SHT31;56575;48.942;8.404;2023-07-20T07:33:23;20.99;60.76
69387;SHT31;56575;48.942;8.404;2023-07-20T07:35:50;21.08;60.51
69387;SHT31;56575;48.942;8.404;2023-07-20T07:38:17;21.15;59.40
69387;SHT31;56575;48.942;8.404;2023-07-20T07:40:43;21.16;59.47
69387;SHT31;56575;48.942;8.404;2023-07-20T07:43:08;21.18;59.84
69387;SHT31;56575;48.942;8.404;2023-07-20T07:45:35;21.33;59.58
69387;SHT31;56575;48.942;8.404;2023-07-20T07:48:04;21.39;59.65
69387;SHT31;56575;48.942;8.404;2023-07-20T07:50:30;21.57;58.73
69387;SHT31;56575;48.942;8.404;2023-07-20T07:52:55;21.65;58.61
69387;SHT31;56575;48.942;8.404;2023-07-20T07:55:21;21.78;58.13
69387;SHT31;56575;48.942;8.404;2023-07-20T07:57:46;22.02;57.27
69387;SHT31;56575;48.942;8.404;2023-07-20T08:00:13;21.99;57.40
69387;SHT31;56575;48.942;8.404;2023-07-20T08:02:41;21.92;57.66
69387;SHT31;56575;48.942;8.404;2023-07-20T08:05:07;21.98;57.92
69387;SHT31;56575;48.942;8.404;2023-07-20T08:07:32;21.75;58.23
69387;SHT31;56575;48.942;8.404;2023-07-20T08:09:58;21.63;57.82
69387;SHT31;56575;48.942;8.404;2023-07-20T08:12:24;21.74;56.97
69387;SHT31;56575;48.942;8.404;2023-07-20T08:14:49;21.63;57.03
69387;SHT31;56575;48.942;8.404;2023-07-20T08:17:15;21.54;57.27
69387;SHT31;56575;48.942;8.404;2023-07-20T08:19:40;21.47;57.20
69387;SHT31;56575;48.942;8.404;2023-07-20T08:22:07;21.56;57.35
69387;SHT31;56575;48.942;8.404;2023-07-20T08:24:32;21.30;58.27
69387;SHT31;56575;48.942;8.404;2023-07-20T08:26:58;21.50;58.37
69387;SHT31;56575;48.942;8.404;2023-07-20T08:29:24;21.68;57.68
69387;SHT31;56575;48.942;8.404;2023-07-20T08:31:49;21.91;56.51
69387;SHT31;56575;48.942;8.404;2023-07-20T08:34:15;22.08;56.20
69387;SHT31;56575;48.942;8.404;2023-07-20T08:36:40;22.06;56.00
69387;SHT31;56575;48.942;8.404;2023-07-20T08:39:06;22.35;56.17
69387;SHT31;56575;48.942;8.404;2023-07-20T08:41:34;22.46;55.51
69387;SHT31;56575;48.942;8.404;2023-07-20T08:44:00;22.52;53.77
69387;SHT31;56575;48.942;8.404;2023-07-20T08:46:27;22.46;54.08
69387;SHT31;56575;48.942;8.404;2023-07-20T08:48:54;22.22;54.25
69387;SHT31;56575;48.942;8.404;2023-07-20T08:51:21;22.65;53.61
69387;SHT31;56575;48.942;8.404;2023-07-20T08:53:47;23.00;53.78
69387;SHT31;56575;48.942;8.404;2023-07-20T08:56:13;22.80;53.08
69387;SHT31;56575;48.942;8.404;2023-07-20T08:58:43;22.65;53.31
69387;SHT31;56575;48.942;8.404;2023-07-20T09:01:10;22.91;52.49
69387;SHT31;56575;48.942;8.404;2023-07-20T09:03:36;23.15;52.23
69387;SHT31;56575;48.942;8.404;2023-07-20T09:06:04;23.66;51.25
69387;SHT31;56575;48.942;8.404;2023-07-20T09:08:30;24.15;50.26
69387;SHT31;56575;48.942;8.404;2023-07-20T09:10:56;24.04;49.68
69387;SHT31;56575;48.942;8.404;2023-07-20T09:13:21;23.60;50.68
69387;SHT31;56575;48.942;8.404;2023-07-20T09:15:53;23.83;51.53
69387;SHT31;56575;48.942;8.404;2023-07-20T09:18:28;23.69;50.86
69387;SHT31;56575;48.942;8.404;2023-07-20T09:21:05;23.47;52.20
69387;SHT31;56575;48.942;8.404;2023-07-20T09:23:32;23.32;52.00
69387;SHT31;56575;48.942;8.404;2023-07-20T09:25:58;23.52;50.10
69387;SHT31;56575;48.942;8.404;2023-07-20T09:28:24;24.37;48.83
69387;SHT31;56575;48.942;8.404;2023-07-20T09:30:49;24.76;47.06
69387;SHT31;56575;48.942;8.404;2023-07-20T09:33:24;24.77;46.09
69387;SHT31;56575;48.942;8.404;2023-07-20T09:35:50;24.76;46.37
69387;SHT31;56575;48.942;8.404;2023-07-20T09:38:15;24.49;47.45
69387;SHT31;56575;48.942;8.404;2023-07-20T09:40:41;24.70;46.57
69387;SHT31;56575;48.942;8.404;2023-07-20T09:43:08;24.40;46.64
69387;SHT31;56575;48.942;8.404;2023-07-20T09:45:35;24.87;46.06
69387;SHT31;56575;48.942;8.404;2023-07-20T09:48:07;25.46;45.72
69387;SHT31;56575;48.942;8.404;2023-07-20T09:50:34;25.81;44.19
69387;SHT31;56575;48.942;8.404;2023-07-20T09:53:04;25.50;45.46
69387;SHT31;56575;48.942;8.404;2023-07-20T09:55:30;25.10;45.12
69387;SHT31;56575;48.942;8.404;2023-07-20T09:57:56;25.01;44.97
69387;SHT31;56575;48.942;8.404;2023-07-20T10:00:22;25.53;44.75
69387;SHT31;56575;48.942;8.404;2023-07-20T10:02:49;25.39;43.82
69387;SHT31;56575;48.942;8.404;2023-07-20T10:05:17;25.96;43.57
69387;SHT31;56575;48.942;8.404;2023-07-20T10:07:46;25.93;42.77
69387;SHT31;56575;48.942;8.404;2023-07-20T10:10:14;25.49;42.50
69387;SHT31;56575;48.942;8.404;2023-07-20T10:12:40;24.63;43.55
69387;SHT31;56575;48.942;8.404;2023-07-20T10:15:36;24.35;45.33
69387;SHT31;56575;48.942;8.404;2023-07-20T10:20:35;26.07;40.38
69387;SHT31;56575;48.942;8.404;2023-07-20T10:23:02;26.48;38.65
69387;SHT31;56575;48.942;8.404;2023-07-20T10:25:28;26.80;40.05
69387;SHT31;56575;48.942;8.404;2023-07-20T10:27:56;27.01;40.10
69387;SHT31;56575;48.942;8.404;2023-07-20T10:30:22;26.80;40.02
69387;SHT31;56575;48.942;8.404;2023-07-20T10:32:48;26.80;38.34
69387;SHT31;56575;48.942;8.404;2023-07-20T10:35:16;27.78;39.11
69387;SHT31;56575;48.942;8.404;2023-07-20T10:37:48;28.20;35.39
69387;SHT31;56575;48.942;8.404;2023-07-20T10:40:29;28.40;35.04
69387;SHT31;56575;48.942;8.404;2023-07-20T10:43:04;28.79;35.50
69387;SHT31;56575;48.942;8.404;2023-07-20T10:45:40;28.87;35.26
69387;SHT31;56575;48.942;8.404;2023-07-20T10:48:13;28.84;35.85
69387;SHT31;56575;48.942;8.404;2023-07-20T10:50:40;28.29;37.41
69387;SHT31;56575;48.942;8.404;2023-07-20T10:53:13;28.00;37.79
69387;SHT31;56575;48.942;8.404;2023-07-20T10:55:40;28.00;36.03
69387;SHT31;56575;48.942;8.404;2023-07-20T10:58:13;28.28;37.44
69387;SHT31;56575;48.942;8.404;2023-07-20T11:01:02;27.58;39.55
69387;SHT31;56575;48.942;8.404;2023-07-20T11:03:33;28.27;37.61
69387;SHT31;56575;48.942;8.404;2023-07-20T11:05:59;28.32;36.08
69387;SHT31;56575;48.942;8.404;2023-07-20T11:08:41;28.65;37.60
69387;SHT31;56575;48.942;8.404;2023-07-20T11:11:27;28.35;36.05
69387;SHT31;56575;48.942;8.404;2023-07-20T11:14:03;29.07;36.06
69387;SHT31;56575;48.942;8.404;2023-07-20T11:16:40;29.80;36.21
69387;SHT31;56575;48.942;8.404;2023-07-20T11:19:14;30.69;34.73
69387;SHT31;56575;48.942;8.404;2023-07-20T11:21:41;30.89;32.84
69387;SHT31;56575;48.942;8.404;2023-07-20T11:24:07;31.31;31.35
69387;SHT31;56575;48.942;8.404;2023-07-20T11:26:54;31.42;30.90
69387;SHT31;56575;48.942;8.404;2023-07-20T11:29:22;31.58;30.60
69387;SHT31;56575;48.942;8.404;2023-07-20T11:31:49;31.58;29.70
69387;SHT31;56575;48.942;8.404;2023-07-20T11:34:20;30.21;30.95
69387;SHT31;56575;48.942;8.404;2023-07-20T11:36:47;30.57;30.23
69387;SHT31;56575;48.942;8.404;2023-07-20T11:39:14;30.54;30.10
69387;SHT31;56575;48.942;8.404;2023-07-20T11:41:47;30.87;29.97
69387;SHT31;56575;48.942;8.404;2023-07-20T11:44:13;31.68;29.97
69387;SHT31;56575;48.942;8.404;2023-07-20T11:46:42;31.38;28.28
69387;SHT31;56575;48.942;8.404;2023-07-20T11:49:09;32.06;27.30
69387;SHT31;56575;48.942;8.404;2023-07-20T11:51:35;31.54;27.84
69387;SHT31;56575;48.942;8.404;2023-07-20T11:54:02;31.99;26.97
69387;SHT31;56575;48.942;8.404;2023-07-20T11:56:27;32.76;25.65
69387;SHT31;56575;48.942;8.404;2023-07-20T11:59:00;30.82;28.28
69387;SHT31;56575;48.942;8.404;2023-07-20T12:01:28;31.38;27.63
69387;SHT31;56575;48.942;8.404;2023-07-20T12:04:02;32.36;29.31
69387;SHT31;56575;48.942;8.404;2023-07-20T12:06:28;32.40;25.86
69387;SHT31;56575;48.942;8.404;2023-07-20T12:08:56;32.57;25.99
69387;SHT31;56575;48.942;8.404;2023-07-20T12:11:34;31.44;26.79
69387;SHT31;56575;48.942;8.404;2023-07-20T12:14:00;31.48;27.49
69387;SHT31;56575;48.942;8.404;2023-07-20T12:16:28;32.09;26.89
69387;SHT31;56575;48.942;8.404;2023-07-20T12:21:27;31.58;26.80
69387;SHT31;56575;48.942;8.404;2023-07-20T12:23:53;31.09;27.20
69387;SHT31;56575;48.942;8.404;2023-07-20T12:26:19;30.99;27.10
69387;SHT31;56575;48.942;8.404;2023-07-20T12:28:45;31.41;27.57
69387;SHT31;56575;48.942;8.404;2023-07-20T12:31:10;30.90;27.61
69387;SHT31;56575;48.942;8.404;2023-07-20T12:33:38;31.09;27.18
69387;SHT31;56575;48.942;8.404;2023-07-20T12:36:04;30.51;26.95
69387;SHT31;56575;48.942;8.404;2023-07-20T12:38:30;31.50;26.74
69387;SHT31;56575;48.942;8.404;2023-07-20T12:40:59;31.20;26.45
69387;SHT31;56575;48.942;8.404;2023-07-20T12:43:25;31.09;26.86
69387;SHT31;56575;48.942;8.404;2023-07-20T12:45:51;30.74;27.11
69387;SHT31;56575;48.942;8.404;2023-07-20T12:48:16;31.02;26.72
69387;SHT31;56575;48.942;8.404;2023-07-20T12:50:41;31.55;26.92
69387;SHT31;56575;48.942;8.404;2023-07-20T12:53:07;32.19;26.18
69387;SHT31;56575;48.942;8.404;2023-07-20T12:55:33;31.17;26.18
69387;SHT31;56575;48.942;8.404;2023-07-20T12:57:58;31.21;25.71
69387;SHT31;56575;48.942;8.404;2023-07-20T13:00:23;31.29;24.82
69387;SHT31;56575;48.942;8.404;2023-07-20T13:02:49;31.67;25.33
69387;SHT31;56575;48.942;8.404;2023-07-20T13:05:15;31.38;25.32
69387;SHT31;56575;48.942;8.404;2023-07-20T13:07:41;31.82;25.67
69387;SHT31;56575;48.942;8.404;2023-07-20T13:10:08;31.67;25.16
69387;SHT31;56575;48.942;8.404;2023-07-20T13:12:35;31.31;25.61
69387;SHT31;56575;48.942;8.404;2023-07-20T13:15:02;29.76;27.01
69387;SHT31;56575;48.942;8.404;2023-07-20T13:17:31;30.09;26.82
69387;SHT31;56575;48.942;8.404;2023-07-20T13:19:57;30.71;27.11
69387;SHT31;56575;48.942;8.404;2023-07-20T13:22:22;29.97;26.35
69387;SHT31;56575;48.942;8.404;2023-07-20T13:24:48;29.79;25.79
69387;SHT31;56575;48.942;8.404;2023-07-20T13:27:14;29.49;25.85
69387;SHT31;56575;48.942;8.404;2023-07-20T13:29:40;30.06;25.35
69387;SHT31;56575;48.942;8.404;2023-07-20T13:32:07;30.25;25.56
69387;SHT31;56575;48.942;8.404;2023-07-20T13:34:32;29.79;25.60
69387;SHT31;56575;48.942;8.404;2023-07-20T13:36:58;30.32;25.36
69387;SHT31;56575;48.942;8.404;2023-07-20T13:39:24;29.82;26.33
69387;SHT31;56575;48.942;8.404;2023-07-20T13:41:51;30.45;29.85
69387;SHT31;56575;48.942;8.404;2023-07-20T13:44:16;30.59;27.21
69387;SHT31;56575;48.942;8.404;2023-07-20T13:46:42;30.23;26.49
69387;SHT31;56575;48.942;8.404;2023-07-20T13:49:07;30.04;26.83
69387;SHT31;56575;48.942;8.404;2023-07-20T13:51:32;30.14;26.21
69387;SHT31;56575;48.942;8.404;2023-07-20T13:53:58;29.80;25.54
69387;SHT31;56575;48.942;8.404;2023-07-20T13:56:24;29.95;24.99
69387;SHT31;56575;48.942;8.404;2023-07-20T13:58:50;30.09;26.17
69387;SHT31;56575;48.942;8.404;2023-07-20T14:01:16;29.89;27.06
69387;SHT31;56575;48.942;8.404;2023-07-20T14:03:43;29.45;27.65
69387;SHT31;56575;48.942;8.404;2023-07-20T14:06:08;29.54;26.94
69387;SHT31;56575;48.942;8.404;2023-07-20T14:08:33;29.68;28.64
69387;SHT31;56575;48.942;8.404;2023-07-20T14:10:59;29.44;26.40
69387;SHT31;56575;48.942;8.404;2023-07-20T14:13:24;29.54;27.25
69387;SHT31;56575;48.942;8.404;2023-07-20T14:15:50;29.82;27.25
69387;SHT31;56575;48.942;8.404;2023-07-20T14:18:16;29.83;27.77
69387;SHT31;56575;48.942;8.404;2023-07-20T14:20:41;29.65;28.25
69387;SHT31;56575;48.942;8.404;2023-07-20T14:23:07;29.25;28.07
69387;SHT31;56575;48.942;8.404;2023-07-20T14:25:32;29.14;27.56
69387;SHT31;56575;48.942;8.404;2023-07-20T14:27:59;29.04;28.80
69387;SHT31;56575;48.942;8.404;2023-07-20T14:30:25;29.06;28.10
69387;SHT31;56575;48.942;8.404;2023-07-20T14:32:50;28.84;28.20
69387;SHT31;56575;48.942;8.404;2023-07-20T14:35:16;29.18;29.02
69387;SHT31;56575;48.942;8.404;2023-07-20T14:37:41;29.20;28.23
69387;SHT31;56575;48.942;8.404;2023-07-20T14:40:07;28.80;28.66
69387;SHT31;56575;48.942;8.404;2023-07-20T14:42:32;29.24;28.69
69387;SHT31;56575;48.942;8.404;2023-07-20T14:44:58;29.37;29.01
69387;SHT31;56575;48.942;8.404;2023-07-20T14:47:23;29.57;30.30
69387;SHT31;56575;48.942;8.404;2023-07-20T14:49:49;29.63;28.07
69387;SHT31;56575;48.942;8.404;2023-07-20T14:52:14;29.69;28.23
69387;SHT31;56575;48.942;8.404;2023-07-20T14:54:40;29.63;27.61
69387;SHT31;56575;48.942;8.404;2023-07-20T14:57:05;29.61;28.25
69387;SHT31;56575;48.942;8.404;2023-07-20T14:59:38;29.92;28.09
69387;SHT31;56575;48.942;8.404;2023-07-20T15:02:04;29.66;26.25
69387;SHT31;56575;48.942;8.404;2023-07-20T15:04:29;29.44;26.54
69387;SHT31;56575;48.942;8.404;2023-07-20T15:06:55;28.93;26.62
69387;SHT31;56575;48.942;8.404;2023-07-20T15:09:21;28.63;27.11
69387;SHT31;56575;48.942;8.404;2023-07-20T15:11:47;28.80;28.61
